Aérodrome :
LOGIN :

S'inscrire | Disclaimer

   EN    FR    IT 

 










Légende :    VFR   VFR Marginal   IFR   IFR Intensif   IFR Très Intensif
Visi : 
Plafond : 
>= 8 km
>= 3000ft
5 à 8 km
1000 à 3000 ft
1500m à 5 km
500 à 1000 ft
800 à 1500m
200 à 500 ft
< 800m
< 200 ft
Symboles :   Orages  Brouillard  Fortes neiges  Fortes précipitations  Vent > 20 kt
SIGMETs :   Divers  Orages  Givrage  Turbulence  Onde Orograph.  Cendres Volcan.







- Altitude de l'aérodrome : 915 ft
- Code IATA : LUG


LSZA - Lugano

DERNIER METAR :
  • 172320Z AUTO VRB01KT 6000 BKN090 14/13 Q1019

METARs EXPIRÉS :
  • 172250Z AUTO VRB01KT 6000 BKN090 15/14 Q1019
  • 172220Z AUTO 36002KT 7000 OVC100 15/14 Q1019
  • 172150Z AUTO VRB01KT 8000 BKN100 15/14 Q1019
  • 172120Z AUTO VRB01KT 8000 BKN100 16/14 Q1019
  • 172050Z AUTO 17001KT 9000 OVC090 16/14 Q1019

TAF TAF LSZA
Valide du 17 à 15h jusqu'au 18 à 00h UTC


171425Z 1715/1724 20007KT 9000 FEW040
BECMG 1720/1722 3000 BR
PROB30 1722/1724 2000
ATIS : +41 22 417 40 88
Pas de NOTAMs connus pour ce terrain.



MET'MAP, la Météo Aéronautique d'un coup d'oeil ! - Copyright ORBIFLY Décembre 2007 - Disclaimer

ORBIFLY MET'MAP TEAM :

Programmation & Développement : Alexandra Zaïnal
Conception & Développement : Baudouin d'Aumeries
Co-Programmation & Développement : Marc-Olivier Méhu
Soutien technique & logistique : Manuel Goepfert

Contact : metmap@orbifly.com




SOURCES & CREDITS :

   NOAA